sensor_id;sensor_type;location;lat;lon;timestamp;temperature;humidity
21403;DHT22;10862;51.886;17.078;2023-12-29T00:02:03;5.40;1.00
21403;DHT22;10862;51.886;17.078;2023-12-29T00:04:29;5.40;1.00
21403;DHT22;10862;51.886;17.078;2023-12-29T00:06:55;5.40;1.00
21403;DHT22;10862;51.886;17.078;2023-12-29T00:09:21;5.40;1.00
21403;DHT22;10862;51.886;17.078;2023-12-29T00:11:50;5.30;1.00
21403;DHT22;10862;51.886;17.078;2023-12-29T00:14:16;5.30;1.00
21403;DHT22;10862;51.886;17.078;2023-12-29T00:16:42;5.30;1.00
21403;DHT22;10862;51.886;17.078;2023-12-29T00:19:09;5.20;1.00
21403;DHT22;10862;51.886;17.078;2023-12-29T00:21:36;5.20;1.00
21403;DHT22;10862;51.886;17.078;2023-12-29T00:24:02;5.10;1.00
21403;DHT22;10862;51.886;17.078;2023-12-29T00:26:27;5.20;1.00
21403;DHT22;10862;51.886;17.078;2023-12-29T00:28:54;5.20;1.00
21403;DHT22;10862;51.886;17.078;2023-12-29T00:31:20;5.20;1.00
21403;DHT22;10862;51.886;17.078;2023-12-29T00:33:46;5.30;1.00
21403;DHT22;10862;51.886;17.078;2023-12-29T00:36:18;5.30;1.00
21403;DHT22;10862;51.886;17.078;2023-12-29T00:38:45;5.20;1.00
21403;DHT22;10862;51.886;17.078;2023-12-29T00:41:11;5.20;1.00
21403;DHT22;10862;51.886;17.078;2023-12-29T00:43:36;5.10;1.00
21403;DHT22;10862;51.886;17.078;2023-12-29T00:46:05;5.00;1.00
21403;DHT22;10862;51.886;17.078;2023-12-29T00:48:32;5.20;1.00
21403;DHT22;10862;51.886;17.078;2023-12-29T00:50:57;5.20;1.00
21403;DHT22;10862;51.886;17.078;2023-12-29T00:53:23;5.10;1.00
21403;DHT22;10862;51.886;17.078;2023-12-29T00:55:49;5.20;1.00
21403;DHT22;10862;51.886;17.078;2023-12-29T00:58:14;5.10;1.00
21403;DHT22;10862;51.886;17.078;2023-12-29T01:00:40;5.20;1.00
21403;DHT22;10862;51.886;17.078;2023-12-29T01:03:07;5.20;1.00
21403;DHT22;10862;51.886;17.078;2023-12-29T01:05:32;5.20;1.00
21403;DHT22;10862;51.886;17.078;2023-12-29T01:07:58;5.20;1.00
21403;DHT22;10862;51.886;17.078;2023-12-29T01:10:23;5.20;1.00
21403;DHT22;10862;51.886;17.078;2023-12-29T01:12:49;5.30;1.00
21403;DHT22;10862;51.886;17.078;2023-12-29T01:15:15;5.30;1.00
21403;DHT22;10862;51.886;17.078;2023-12-29T01:17:40;5.30;1.00
21403;DHT22;10862;51.886;17.078;2023-12-29T01:20:06;5.30;1.00
21403;DHT22;10862;51.886;17.078;2023-12-29T01:22:32;5.30;1.00
21403;DHT22;10862;51.886;17.078;2023-12-29T01:25:00;5.50;1.00
21403;DHT22;10862;51.886;17.078;2023-12-29T01:27:26;5.40;1.00
21403;DHT22;10862;51.886;17.078;2023-12-29T01:29:52;5.30;1.00
21403;DHT22;10862;51.886;17.078;2023-12-29T01:32:19;5.40;19.70
21403;DHT22;10862;51.886;17.078;2023-12-29T01:34:44;5.30;8.30
21403;DHT22;10862;51.886;17.078;2023-12-29T01:37:10;5.50;1.00
21403;DHT22;10862;51.886;17.078;2023-12-29T01:39:36;5.50;1.00
21403;DHT22;10862;51.886;17.078;2023-12-29T01:42:01;5.40;1.90
21403;DHT22;10862;51.886;17.078;2023-12-29T01:44:27;5.40;7.00
21403;DHT22;10862;51.886;17.078;2023-12-29T01:46:59;5.50;20.60
21403;DHT22;10862;51.886;17.078;2023-12-29T01:49:25;5.50;7.00
21403;DHT22;10862;51.886;17.078;2023-12-29T01:51:54;5.50;19.80
21403;DHT22;10862;51.886;17.078;2023-12-29T01:54:21;5.60;14.40
21403;DHT22;10862;51.886;17.078;2023-12-29T01:56:52;5.60;4.20
21403;DHT22;10862;51.886;17.078;2023-12-29T01:59:20;5.50;1.00
21403;DHT22;10862;51.886;17.078;2023-12-29T02:01:46;5.50;1.00
21403;DHT22;10862;51.886;17.078;2023-12-29T02:04:12;5.50;5.70
21403;DHT22;10862;51.886;17.078;2023-12-29T02:06:39;5.60;13.00
21403;DHT22;10862;51.886;17.078;2023-12-29T02:09:05;5.60;1.00
21403;DHT22;10862;51.886;17.078;2023-12-29T02:11:31;5.60;1.00
21403;DHT22;10862;51.886;17.078;2023-12-29T02:13:59;5.50;19.20
21403;DHT22;10862;51.886;17.078;2023-12-29T02:16:42;5.50;44.70
21403;DHT22;10862;51.886;17.078;2023-12-29T02:19:42;5.50;37.40
21403;DHT22;10862;51.886;17.078;2023-12-29T02:22:11;5.40;47.50
21403;DHT22;10862;51.886;17.078;2023-12-29T02:24:38;5.40;93.30
21403;DHT22;10862;51.886;17.078;2023-12-29T02:29:51;5.20;99.90
21403;DHT22;10862;51.886;17.078;2023-12-29T02:32:22;5.30;99.90
21403;DHT22;10862;51.886;17.078;2023-12-29T02:34:50;5.20;99.90
21403;DHT22;10862;51.886;17.078;2023-12-29T02:37:18;5.30;99.90
21403;DHT22;10862;51.886;17.078;2023-12-29T02:39:44;5.30;99.90
21403;DHT22;10862;51.886;17.078;2023-12-29T02:42:10;5.30;99.90
21403;DHT22;10862;51.886;17.078;2023-12-29T02:44:35;5.30;99.90
21403;DHT22;10862;51.886;17.078;2023-12-29T02:47:01;5.30;99.90
21403;DHT22;10862;51.886;17.078;2023-12-29T02:49:29;5.30;99.90
21403;DHT22;10862;51.886;17.078;2023-12-29T02:51:54;5.20;99.90
21403;DHT22;10862;51.886;17.078;2023-12-29T02:54:20;5.30;99.90
21403;DHT22;10862;51.886;17.078;2023-12-29T02:56:46;5.20;99.90
21403;DHT22;10862;51.886;17.078;2023-12-29T02:59:11;5.20;99.90
21403;DHT22;10862;51.886;17.078;2023-12-29T03:01:37;5.20;99.90
21403;DHT22;10862;51.886;17.078;2023-12-29T03:04:02;5.20;99.90
21403;DHT22;10862;51.886;17.078;2023-12-29T03:06:28;5.10;99.90
21403;DHT22;10862;51.886;17.078;2023-12-29T03:08:54;5.10;99.90
21403;DHT22;10862;51.886;17.078;2023-12-29T03:11:19;5.10;99.90
21403;DHT22;10862;51.886;17.078;2023-12-29T03:13:45;5.20;99.90
21403;DHT22;10862;51.886;17.078;2023-12-29T03:16:11;5.10;99.90
21403;DHT22;10862;51.886;17.078;2023-12-29T03:18:37;5.10;99.90
21403;DHT22;10862;51.886;17.078;2023-12-29T03:21:05;5.00;99.90
21403;DHT22;10862;51.886;17.078;2023-12-29T03:23:31;5.10;99.90
21403;DHT22;10862;51.886;17.078;2023-12-29T03:25:56;5.20;99.90
21403;DHT22;10862;51.886;17.078;2023-12-29T03:28:22;5.10;99.90
21403;DHT22;10862;51.886;17.078;2023-12-29T03:30:48;5.30;99.90
21403;DHT22;10862;51.886;17.078;2023-12-29T03:33:15;5.20;99.90
21403;DHT22;10862;51.886;17.078;2023-12-29T03:35:40;5.50;99.90
21403;DHT22;10862;51.886;17.078;2023-12-29T03:38:06;5.40;75.00
21403;DHT22;10862;51.886;17.078;2023-12-29T03:40:31;5.30;46.90
21403;DHT22;10862;51.886;17.078;2023-12-29T03:42:57;5.40;28.30
21403;DHT22;10862;51.886;17.078;2023-12-29T03:45:22;5.50;8.20
21403;DHT22;10862;51.886;17.078;2023-12-29T03:47:48;5.50;1.00
21403;DHT22;10862;51.886;17.078;2023-12-29T03:50:14;5.60;1.00
21403;DHT22;10862;51.886;17.078;2023-12-29T03:52:39;5.50;1.00
21403;DHT22;10862;51.886;17.078;2023-12-29T03:55:05;5.50;1.00
21403;DHT22;10862;51.886;17.078;2023-12-29T03:57:31;5.60;1.00
21403;DHT22;10862;51.886;17.078;2023-12-29T03:59:57;5.70;1.00
21403;DHT22;10862;51.886;17.078;2023-12-29T04:02:22;5.70;1.00
21403;DHT22;10862;51.886;17.078;2023-12-29T04:04:48;5.70;1.00
21403;DHT22;10862;51.886;17.078;2023-12-29T04:07:13;5.70;1.00
21403;DHT22;10862;51.886;17.078;2023-12-29T04:09:39;6.00;1.00
21403;DHT22;10862;51.886;17.078;2023-12-29T04:12:05;5.80;1.00
21403;DHT22;10862;51.886;17.078;2023-12-29T04:14:30;5.90;1.00
21403;DHT22;10862;51.886;17.078;2023-12-29T04:16:56;5.90;1.00
21403;DHT22;10862;51.886;17.078;2023-12-29T04:19:22;6.10;1.00
21403;DHT22;10862;51.886;17.078;2023-12-29T04:21:47;5.90;1.00
21403;DHT22;10862;51.886;17.078;2023-12-29T04:24:13;5.90;1.00
21403;DHT22;10862;51.886;17.078;2023-12-29T04:26:39;6.00;1.00
21403;DHT22;10862;51.886;17.078;2023-12-29T04:29:05;6.00;1.00
21403;DHT22;10862;51.886;17.078;2023-12-29T04:31:30;6.00;1.00
21403;DHT22;10862;51.886;17.078;2023-12-29T04:33:56;5.90;1.00
21403;DHT22;10862;51.886;17.078;2023-12-29T04:36:21;5.70;1.00
21403;DHT22;10862;51.886;17.078;2023-12-29T04:38:47;5.70;1.00
21403;DHT22;10862;51.886;17.078;2023-12-29T04:41:13;5.70;1.00
21403;DHT22;10862;51.886;17.078;2023-12-29T04:43:39;5.70;1.00
21403;DHT22;10862;51.886;17.078;2023-12-29T04:46:04;5.70;1.00
21403;DHT22;10862;51.886;17.078;2023-12-29T04:48:30;5.60;1.00
21403;DHT22;10862;51.886;17.078;2023-12-29T04:50:55;5.60;1.00
21403;DHT22;10862;51.886;17.078;2023-12-29T04:53:21;5.70;1.00
21403;DHT22;10862;51.886;17.078;2023-12-29T04:55:47;5.60;1.00
21403;DHT22;10862;51.886;17.078;2023-12-29T04:58:12;5.60;1.00
21403;DHT22;10862;51.886;17.078;2023-12-29T05:00:38;5.60;1.00
21403;DHT22;10862;51.886;17.078;2023-12-29T05:03:04;5.60;1.00
21403;DHT22;10862;51.886;17.078;2023-12-29T05:05:29;5.60;1.00
21403;DHT22;10862;51.886;17.078;2023-12-29T05:07:55;5.60;1.00
21403;DHT22;10862;51.886;17.078;2023-12-29T05:10:21;5.70;1.00
21403;DHT22;10862;51.886;17.078;2023-12-29T05:12:46;5.60;1.00
21403;DHT22;10862;51.886;17.078;2023-12-29T05:15:12;5.50;1.00
21403;DHT22;10862;51.886;17.078;2023-12-29T05:17:37;5.60;1.00
21403;DHT22;10862;51.886;17.078;2023-12-29T05:20:06;5.60;1.00
21403;DHT22;10862;51.886;17.078;2023-12-29T05:22:31;5.50;1.00
21403;DHT22;10862;51.886;17.078;2023-12-29T05:24:57;5.40;1.00
21403;DHT22;10862;51.886;17.078;2023-12-29T05:27:25;5.30;1.00
21403;DHT22;10862;51.886;17.078;2023-12-29T05:29:51;5.40;1.00
21403;DHT22;10862;51.886;17.078;2023-12-29T05:32:17;5.30;1.00
21403;DHT22;10862;51.886;17.078;2023-12-29T05:34:43;5.20;1.00
21403;DHT22;10862;51.886;17.078;2023-12-29T05:37:08;5.30;1.00
21403;DHT22;10862;51.886;17.078;2023-12-29T05:39:34;5.10;1.00
21403;DHT22;10862;51.886;17.078;2023-12-29T05:42:00;5.00;1.00
21403;DHT22;10862;51.886;17.078;2023-12-29T05:44:27;5.00;1.00
21403;DHT22;10862;51.886;17.078;2023-12-29T05:46:52;4.90;1.00
21403;DHT22;10862;51.886;17.078;2023-12-29T05:49:24;4.90;1.00
21403;DHT22;10862;51.886;17.078;2023-12-29T05:51:50;4.90;1.00
21403;DHT22;10862;51.886;17.078;2023-12-29T05:54:16;4.90;1.00
21403;DHT22;10862;51.886;17.078;2023-12-29T05:56:41;4.90;1.00
21403;DHT22;10862;51.886;17.078;2023-12-29T05:59:07;4.80;1.00
21403;DHT22;10862;51.886;17.078;2023-12-29T06:01:33;4.80;1.00
21403;DHT22;10862;51.886;17.078;2023-12-29T06:03:58;4.80;1.00
21403;DHT22;10862;51.886;17.078;2023-12-29T06:06:24;4.80;1.00
21403;DHT22;10862;51.886;17.078;2023-12-29T06:08:50;4.80;1.00
21403;DHT22;10862;51.886;17.078;2023-12-29T06:11:16;4.80;1.00
21403;DHT22;10862;51.886;17.078;2023-12-29T06:13:42;4.80;1.00
21403;DHT22;10862;51.886;17.078;2023-12-29T06:16:08;4.80;1.00
21403;DHT22;10862;51.886;17.078;2023-12-29T06:18:34;4.90;1.00
21403;DHT22;10862;51.886;17.078;2023-12-29T06:21:02;4.90;1.00
21403;DHT22;10862;51.886;17.078;2023-12-29T06:23:28;4.90;1.00
21403;DHT22;10862;51.886;17.078;2023-12-29T06:25:54;5.00;1.00
21403;DHT22;10862;51.886;17.078;2023-12-29T06:28:19;5.00;1.00
21403;DHT22;10862;51.886;17.078;2023-12-29T06:30:45;5.10;1.00
21403;DHT22;10862;51.886;17.078;2023-12-29T06:33:11;5.10;1.00
21403;DHT22;10862;51.886;17.078;2023-12-29T06:35:37;5.20;1.00
21403;DHT22;10862;51.886;17.078;2023-12-29T06:38:04;5.20;1.00
21403;DHT22;10862;51.886;17.078;2023-12-29T06:40:30;5.30;1.00
21403;DHT22;10862;51.886;17.078;2023-12-29T06:42:55;5.30;1.00
21403;DHT22;10862;51.886;17.078;2023-12-29T06:45:21;5.30;1.00
21403;DHT22;10862;51.886;17.078;2023-12-29T06:47:47;5.40;1.00
21403;DHT22;10862;51.886;17.078;2023-12-29T06:50:12;5.50;1.00
21403;DHT22;10862;51.886;17.078;2023-12-29T06:52:39;5.50;1.00
21403;DHT22;10862;51.886;17.078;2023-12-29T06:55:05;5.50;1.00
21403;DHT22;10862;51.886;17.078;2023-12-29T06:57:31;5.50;1.00
21403;DHT22;10862;51.886;17.078;2023-12-29T06:59:56;5.50;1.00
21403;DHT22;10862;51.886;17.078;2023-12-29T07:02:22;5.60;1.00
21403;DHT22;10862;51.886;17.078;2023-12-29T07:04:48;5.50;1.00
21403;DHT22;10862;51.886;17.078;2023-12-29T07:07:14;5.60;1.00
21403;DHT22;10862;51.886;17.078;2023-12-29T07:09:39;5.60;1.00
21403;DHT22;10862;51.886;17.078;2023-12-29T07:12:08;5.60;1.00
21403;DHT22;10862;51.886;17.078;2023-12-29T07:14:34;5.60;1.00
21403;DHT22;10862;51.886;17.078;2023-12-29T07:17:01;5.50;1.00
21403;DHT22;10862;51.886;17.078;2023-12-29T07:19:27;5.50;1.00
21403;DHT22;10862;51.886;17.078;2023-12-29T07:21:59;5.40;1.00
21403;DHT22;10862;51.886;17.078;2023-12-29T07:24:25;5.40;1.00
21403;DHT22;10862;51.886;17.078;2023-12-29T07:26:51;5.40;1.00
21403;DHT22;10862;51.886;17.078;2023-12-29T07:29:16;5.50;1.50
21403;DHT22;10862;51.886;17.078;2023-12-29T07:31:42;5.40;1.00
21403;DHT22;10862;51.886;17.078;2023-12-29T07:34:08;5.40;6.10
21403;DHT22;10862;51.886;17.078;2023-12-29T07:36:38;5.40;25.20
21403;DHT22;10862;51.886;17.078;2023-12-29T07:39:03;5.50;42.90
21403;DHT22;10862;51.886;17.078;2023-12-29T07:41:30;5.50;40.30
21403;DHT22;10862;51.886;17.078;2023-12-29T07:43:55;5.50;44.40
21403;DHT22;10862;51.886;17.078;2023-12-29T07:46:27;5.60;75.40
21403;DHT22;10862;51.886;17.078;2023-12-29T07:48:53;5.70;99.90
21403;DHT22;10862;51.886;17.078;2023-12-29T07:51:18;5.90;99.90
21403;DHT22;10862;51.886;17.078;2023-12-29T07:53:44;6.10;97.70
21403;DHT22;10862;51.886;17.078;2023-12-29T07:56:10;6.30;56.90
21403;DHT22;10862;51.886;17.078;2023-12-29T07:58:36;6.60;1.00
21403;DHT22;10862;51.886;17.078;2023-12-29T08:01:02;6.70;1.00
21403;DHT22;10862;51.886;17.078;2023-12-29T08:03:27;6.80;1.00
21403;DHT22;10862;51.886;17.078;2023-12-29T08:05:53;6.90;1.00
21403;DHT22;10862;51.886;17.078;2023-12-29T08:08:18;6.90;1.00
21403;DHT22;10862;51.886;17.078;2023-12-29T08:10:44;7.20;1.00
21403;DHT22;10862;51.886;17.078;2023-12-29T08:13:10;7.40;1.00
21403;DHT22;10862;51.886;17.078;2023-12-29T08:15:35;7.60;99.90
21403;DHT22;10862;51.886;17.078;2023-12-29T08:18:03;7.80;99.90
21403;DHT22;10862;51.886;17.078;2023-12-29T08:20:28;7.90;1.00
21403;DHT22;10862;51.886;17.078;2023-12-29T08:22:54;8.00;99.90
21403;DHT22;10862;51.886;17.078;2023-12-29T08:25:20;7.90;1.00
21403;DHT22;10862;51.886;17.078;2023-12-29T08:27:46;8.00;99.90
21403;DHT22;10862;51.886;17.078;2023-12-29T08:30:12;7.90;99.90
21403;DHT22;10862;51.886;17.078;2023-12-29T08:32:37;8.00;1.00
21403;DHT22;10862;51.886;17.078;2023-12-29T08:35:03;8.10;1.00
21403;DHT22;10862;51.886;17.078;2023-12-29T08:37:29;8.10;99.90
21403;DHT22;10862;51.886;17.078;2023-12-29T08:39:55;8.50;1.00
21403;DHT22;10862;51.886;17.078;2023-12-29T08:42:21;8.60;1.00
21403;DHT22;10862;51.886;17.078;2023-12-29T08:44:47;8.50;65.40
21403;DHT22;10862;51.886;17.078;2023-12-29T08:47:14;8.40;1.00
21403;DHT22;10862;51.886;17.078;2023-12-29T08:49:40;8.20;1.00
21403;DHT22;10862;51.886;17.078;2023-12-29T08:52:06;8.30;1.00
21403;DHT22;10862;51.886;17.078;2023-12-29T08:54:32;8.50;1.00
21403;DHT22;10862;51.886;17.078;2023-12-29T08:56:58;8.60;99.90
21403;DHT22;10862;51.886;17.078;2023-12-29T08:59:23;8.70;99.90
21403;DHT22;10862;51.886;17.078;2023-12-29T09:01:49;8.90;99.90
21403;DHT22;10862;51.886;17.078;2023-12-29T09:04:15;9.00;99.90
21403;DHT22;10862;51.886;17.078;2023-12-29T09:06:40;9.20;1.00
21403;DHT22;10862;51.886;17.078;2023-12-29T09:09:06;9.30;1.00
21403;DHT22;10862;51.886;17.078;2023-12-29T09:11:31;9.40;99.90
21403;DHT22;10862;51.886;17.078;2023-12-29T09:13:57;9.50;99.00
21403;DHT22;10862;51.886;17.078;2023-12-29T09:16:23;9.80;99.90
21403;DHT22;10862;51.886;17.078;2023-12-29T09:18:48;10.10;99.90
21403;DHT22;10862;51.886;17.078;2023-12-29T09:21:14;10.50;1.00
21403;DHT22;10862;51.886;17.078;2023-12-29T09:23:39;10.60;99.90
21403;DHT22;10862;51.886;17.078;2023-12-29T09:26:05;10.90;99.90
21403;DHT22;10862;51.886;17.078;2023-12-29T09:28:33;10.60;99.90
21403;DHT22;10862;51.886;17.078;2023-12-29T09:30:59;10.90;99.90
21403;DHT22;10862;51.886;17.078;2023-12-29T09:33:26;10.70;82.60
21403;DHT22;10862;51.886;17.078;2023-12-29T09:35:51;10.40;99.90
21403;DHT22;10862;51.886;17.078;2023-12-29T09:38:18;10.50;99.90
21403;DHT22;10862;51.886;17.078;2023-12-29T09:40:44;10.70;99.90
21403;DHT22;10862;51.886;17.078;2023-12-29T09:43:11;11.20;1.00
21403;DHT22;10862;51.886;17.078;2023-12-29T09:45:38;10.90;1.00
21403;DHT22;10862;51.886;17.078;2023-12-29T09:48:07;10.70;1.00
21403;DHT22;10862;51.886;17.078;2023-12-29T09:50:34;10.10;99.90
21403;DHT22;10862;51.886;17.078;2023-12-29T09:53:02;9.60;85.60
21403;DHT22;10862;51.886;17.078;2023-12-29T09:55:27;9.40;1.00
21403;DHT22;10862;51.886;17.078;2023-12-29T09:57:54;9.20;99.90
21403;DHT22;10862;51.886;17.078;2023-12-29T10:00:20;9.20;99.90
21403;DHT22;10862;51.886;17.078;2023-12-29T10:02:50;9.30;1.00
21403;DHT22;10862;51.886;17.078;2023-12-29T10:05:16;9.50;99.90
21403;DHT22;10862;51.886;17.078;2023-12-29T10:07:43;9.70;1.00
21403;DHT22;10862;51.886;17.078;2023-12-29T10:10:15;9.60;99.90
21403;DHT22;10862;51.886;17.078;2023-12-29T10:12:47;9.50;99.90
21403;DHT22;10862;51.886;17.078;2023-12-29T10:16:20;9.60;99.90
21403;DHT22;10862;51.886;17.078;2023-12-29T10:25:57;9.70;81.00
21403;DHT22;10862;51.886;17.078;2023-12-29T10:28:23;9.70;16.90
21403;DHT22;10862;51.886;17.078;2023-12-29T10:30:49;9.80;1.00
21403;DHT22;10862;51.886;17.078;2023-12-29T10:33:21;9.80;1.00
21403;DHT22;10862;51.886;17.078;2023-12-29T10:35:56;9.90;1.00
21403;DHT22;10862;51.886;17.078;2023-12-29T10:38:23;10.00;1.00
21403;DHT22;10862;51.886;17.078;2023-12-29T10:40:49;10.10;1.00
21403;DHT22;10862;51.886;17.078;2023-12-29T10:43:22;10.20;99.90
21403;DHT22;10862;51.886;17.078;2023-12-29T10:45:47;10.10;99.90
21403;DHT22;10862;51.886;17.078;2023-12-29T10:48:21;10.10;99.90
21403;DHT22;10862;51.886;17.078;2023-12-29T10:50:49;10.30;99.90
21403;DHT22;10862;51.886;17.078;2023-12-29T10:53:15;10.30;28.30
21403;DHT22;10862;51.886;17.078;2023-12-29T10:55:44;10.30;1.00
21403;DHT22;10862;51.886;17.078;2023-12-29T10:58:10;10.20;14.20
21403;DHT22;10862;51.886;17.078;2023-12-29T11:00:35;10.20;1.00
21403;DHT22;10862;51.886;17.078;2023-12-29T11:03:01;10.30;1.00
21403;DHT22;10862;51.886;17.078;2023-12-29T11:05:27;10.40;1.00
21403;DHT22;10862;51.886;17.078;2023-12-29T11:07:54;10.30;1.00
21403;DHT22;10862;51.886;17.078;2023-12-29T11:10:21;10.40;1.00
21403;DHT22;10862;51.886;17.078;2023-12-29T11:12:48;10.40;1.00
21403;DHT22;10862;51.886;17.078;2023-12-29T11:15:15;10.40;1.00
21403;DHT22;10862;51.886;17.078;2023-12-29T11:17:42;10.30;1.00
21403;DHT22;10862;51.886;17.078;2023-12-29T11:20:28;10.30;1.00
21403;DHT22;10862;51.886;17.078;2023-12-29T11:22:54;10.40;1.00
21403;DHT22;10862;51.886;17.078;2023-12-29T11:25:20;10.40;1.00
21403;DHT22;10862;51.886;17.078;2023-12-29T11:27:46;10.30;1.00
21403;DHT22;10862;51.886;17.078;2023-12-29T11:30:14;10.20;1.00
21403;DHT22;10862;51.886;17.078;2023-12-29T11:35:32;10.20;1.00
21403;DHT22;10862;51.886;17.078;2023-12-29T11:38:28;10.30;1.00
21403;DHT22;10862;51.886;17.078;2023-12-29T11:43:58;10.30;1.00
21403;DHT22;10862;51.886;17.078;2023-12-29T11:49:03;10.40;1.00
21403;DHT22;10862;51.886;17.078;2023-12-29T11:51:46;10.50;1.00
21403;DHT22;10862;51.886;17.078;2023-12-29T11:54:40;10.60;1.00
21403;DHT22;10862;51.886;17.078;2023-12-29T11:57:08;10.60;1.00
21403;DHT22;10862;51.886;17.078;2023-12-29T11:59:46;10.60;1.00
21403;DHT22;10862;51.886;17.078;2023-12-29T12:02:27;10.70;1.00
21403;DHT22;10862;51.886;17.078;2023-12-29T12:04:53;10.80;1.00
21403;DHT22;10862;51.886;17.078;2023-12-29T12:09:48;10.90;1.00
21403;DHT22;10862;51.886;17.078;2023-12-29T12:12:40;10.90;1.00
21403;DHT22;10862;51.886;17.078;2023-12-29T12:17:59;11.00;99.90
21403;DHT22;10862;51.886;17.078;2023-12-29T12:20:25;11.00;99.90
21403;DHT22;10862;51.886;17.078;2023-12-29T12:25:35;11.00;99.90
21403;DHT22;10862;51.886;17.078;2023-12-29T12:28:06;11.00;99.90
21403;DHT22;10862;51.886;17.078;2023-12-29T12:30:33;10.90;99.90
21403;DHT22;10862;51.886;17.078;2023-12-29T12:33:01;11.00;99.90
21403;DHT22;10862;51.886;17.078;2023-12-29T12:35:26;11.00;99.90
21403;DHT22;10862;51.886;17.078;2023-12-29T12:38:14;11.00;99.90
21403;DHT22;10862;51.886;17.078;2023-12-29T12:40:41;11.00;99.90
21403;DHT22;10862;51.886;17.078;2023-12-29T12:43:07;11.00;99.90
21403;DHT22;10862;51.886;17.078;2023-12-29T12:45:54;11.00;99.90
21403;DHT22;10862;51.886;17.078;2023-12-29T12:48:43;11.10;99.90
21403;DHT22;10862;51.886;17.078;2023-12-29T12:51:10;11.10;99.90
21403;DHT22;10862;51.886;17.078;2023-12-29T12:53:42;11.10;99.90
21403;DHT22;10862;51.886;17.078;2023-12-29T12:56:10;11.10;99.90
21403;DHT22;10862;51.886;17.078;2023-12-29T12:58:36;11.00;99.90
21403;DHT22;10862;51.886;17.078;2023-12-29T13:01:02;11.00;99.90
21403;DHT22;10862;51.886;17.078;2023-12-29T13:03:29;11.00;99.90
21403;DHT22;10862;51.886;17.078;2023-12-29T13:05:57;11.00;99.90
21403;DHT22;10862;51.886;17.078;2023-12-29T13:08:23;11.10;99.90
21403;DHT22;10862;51.886;17.078;2023-12-29T13:10:50;11.10;99.90
21403;DHT22;10862;51.886;17.078;2023-12-29T13:13:16;11.10;99.90
21403;DHT22;10862;51.886;17.078;2023-12-29T13:15:47;11.10;99.90
21403;DHT22;10862;51.886;17.078;2023-12-29T13:18:14;11.10;99.90
21403;DHT22;10862;51.886;17.078;2023-12-29T13:20:47;11.20;99.90
21403;DHT22;10862;51.886;17.078;2023-12-29T13:23:13;11.30;99.90
21403;DHT22;10862;51.886;17.078;2023-12-29T13:25:40;11.30;99.90
21403;DHT22;10862;51.886;17.078;2023-12-29T13:28:08;11.30;99.90
21403;DHT22;10862;51.886;17.078;2023-12-29T13:30:35;11.30;99.90
21403;DHT22;10862;51.886;17.078;2023-12-29T13:33:13;11.30;99.90
21403;DHT22;10862;51.886;17.078;2023-12-29T13:35:47;11.30;99.90
21403;DHT22;10862;51.886;17.078;2023-12-29T13:38:29;11.30;99.90
21403;DHT22;10862;51.886;17.078;2023-12-29T13:41:07;11.20;99.90
21403;DHT22;10862;51.886;17.078;2023-12-29T13:43:35;11.20;99.90
21403;DHT22;10862;51.886;17.078;2023-12-29T13:46:03;11.20;99.90
21403;DHT22;10862;51.886;17.078;2023-12-29T13:48:29;11.10;99.90
21403;DHT22;10862;51.886;17.078;2023-12-29T13:50:56;11.10;99.90
21403;DHT22;10862;51.886;17.078;2023-12-29T13:53:22;11.00;99.90
21403;DHT22;10862;51.886;17.078;2023-12-29T13:55:50;10.90;99.90
21403;DHT22;10862;51.886;17.078;2023-12-29T13:58:16;10.80;99.90
21403;DHT22;10862;51.886;17.078;2023-12-29T14:00:43;10.80;99.90
21403;DHT22;10862;51.886;17.078;2023-12-29T14:04:06;10.80;99.90
21403;DHT22;10862;51.886;17.078;2023-12-29T14:06:20;10.80;99.90
21403;DHT22;10862;51.886;17.078;2023-12-29T14:08:46;10.80;99.90
21403;DHT22;10862;51.886;17.078;2023-12-29T14:11:13;10.70;99.90
21403;DHT22;10862;51.886;17.078;2023-12-29T14:13:43;10.70;99.90
21403;DHT22;10862;51.886;17.078;2023-12-29T14:16:08;10.70;99.90
21403;DHT22;10862;51.886;17.078;2023-12-29T14:18:49;10.70;99.90
21403;DHT22;10862;51.886;17.078;2023-12-29T14:21:30;10.70;99.90
21403;DHT22;10862;51.886;17.078;2023-12-29T14:24:16;10.70;99.90
21403;DHT22;10862;51.886;17.078;2023-12-29T14:29:17;10.60;99.90
21403;DHT22;10862;51.886;17.078;2023-12-29T14:31:44;10.60;99.90
21403;DHT22;10862;51.886;17.078;2023-12-29T14:34:11;10.50;99.90
21403;DHT22;10862;51.886;17.078;2023-12-29T14:36:38;10.50;99.90
21403;DHT22;10862;51.886;17.078;2023-12-29T14:39:04;10.50;99.90
21403;DHT22;10862;51.886;17.078;2023-12-29T14:41:31;10.50;99.90
21403;DHT22;10862;51.886;17.078;2023-12-29T14:43:57;10.50;1.00
21403;DHT22;10862;51.886;17.078;2023-12-29T14:46:23;10.40;1.00
21403;DHT22;10862;51.886;17.078;2023-12-29T14:48:49;10.40;1.00
21403;DHT22;10862;51.886;17.078;2023-12-29T14:51:15;10.40;1.00
21403;DHT22;10862;51.886;17.078;2023-12-29T14:53:49;10.40;1.00
21403;DHT22;10862;51.886;17.078;2023-12-29T14:56:16;10.40;1.00
21403;DHT22;10862;51.886;17.078;2023-12-29T14:58:43;10.30;1.00
21403;DHT22;10862;51.886;17.078;2023-12-29T15:01:09;10.30;1.00
21403;DHT22;10862;51.886;17.078;2023-12-29T15:03:35;10.30;1.00
21403;DHT22;10862;51.886;17.078;2023-12-29T15:06:02;10.20;1.00
21403;DHT22;10862;51.886;17.078;2023-12-29T15:08:28;10.20;1.00
21403;DHT22;10862;51.886;17.078;2023-12-29T15:11:03;10.20;1.00
21403;DHT22;10862;51.886;17.078;2023-12-29T15:13:29;10.10;1.00
21403;DHT22;10862;51.886;17.078;2023-12-29T15:15:56;10.10;1.00
21403;DHT22;10862;51.886;17.078;2023-12-29T15:18:23;10.10;65.40
21403;DHT22;10862;51.886;17.078;2023-12-29T15:20:49;10.00;99.90
21403;DHT22;10862;51.886;17.078;2023-12-29T15:23:14;9.90;99.90
21403;DHT22;10862;51.886;17.078;2023-12-29T15:25:40;9.90;99.90
21403;DHT22;10862;51.886;17.078;2023-12-29T15:28:07;9.90;99.90
21403;DHT22;10862;51.886;17.078;2023-12-29T15:30:33;9.90;99.90
21403;DHT22;10862;51.886;17.078;2023-12-29T15:32:59;9.90;99.90
21403;DHT22;10862;51.886;17.078;2023-12-29T15:35:24;9.80;99.90
21403;DHT22;10862;51.886;17.078;2023-12-29T15:37:50;9.90;99.90
21403;DHT22;10862;51.886;17.078;2023-12-29T15:40:16;9.70;99.90
21403;DHT22;10862;51.886;17.078;2023-12-29T15:42:43;9.80;1.00
21403;DHT22;10862;51.886;17.078;2023-12-29T15:45:09;9.70;1.00
21403;DHT22;10862;51.886;17.078;2023-12-29T15:47:35;9.70;1.00
21403;DHT22;10862;51.886;17.078;2023-12-29T15:50:01;9.70;1.00
21403;DHT22;10862;51.886;17.078;2023-12-29T15:52:27;9.70;1.00
21403;DHT22;10862;51.886;17.078;2023-12-29T15:54:53;9.60;1.00
21403;DHT22;10862;51.886;17.078;2023-12-29T15:57:19;9.60;1.00
21403;DHT22;10862;51.886;17.078;2023-12-29T15:59:45;9.50;1.00
21403;DHT22;10862;51.886;17.078;2023-12-29T16:02:11;9.50;1.00
21403;DHT22;10862;51.886;17.078;2023-12-29T16:04:37;9.50;6.60
21403;DHT22;10862;51.886;17.078;2023-12-29T16:07:03;9.30;99.90